Time;durP1;ratioP1;P1;durP2;ratioP2;P2;SDS_P1;SDS_P2;PMS_P1;PMS_P2;Temp;Humidity;BMP_temperature;BMP_pressure;BME280_temperature;BME280_humidity;BME280_pressure;Samples;Min_cycle;Max_cycle;Signal;HPM_P1;HPM_P2
2023/09/16 00:00:33;;;;;;;19.05;11.35;;;;;;;14.08;100.00;101352.06;4895578;29;20028;-72
2023/09/16 00:03:03;;;;;;;17.48;11.18;;;;;;;14.11;100.00;101356.19;4895671;29;20495;-72
2023/09/16 00:05:29;;;;;;;17.17;11.23;;;;;;;14.11;100.00;101353.50;4879130;29;20056;-72
2023/09/16 00:07:54;;;;;;;17.42;10.40;;;;;;;14.09;100.00;101347.50;4895789;29;20028;-72
2023/09/16 00:10:20;;;;;;;18.73;12.48;;;;;;;14.06;100.00;101354.09;4895863;29;20017;-72
2023/09/16 00:12:45;;;;;;;16.38;10.98;;;;;;;14.11;100.00;101353.50;4895218;29;20514;-72
2023/09/16 00:15:11;;;;;;;17.42;10.38;;;;;;;14.12;100.00;101344.41;4895718;29;20084;-72
2023/09/16 00:17:36;;;;;;;18.35;10.65;;;;;;;14.15;100.00;101344.84;4878691;29;20070;-72
2023/09/16 00:20:11;;;;;;;18.10;10.85;;;;;;;14.19;100.00;101342.53;4895307;29;20116;-72
2023/09/16 00:22:36;;;;;;;17.60;10.38;;;;;;;14.20;100.00;101347.72;4880100;29;20480;-72
2023/09/16 00:25:04;;;;;;;15.63;10.75;;;;;;;14.17;100.00;101347.28;4895731;29;20055;-72
2023/09/16 00:27:29;;;;;;;18.45;11.15;;;;;;;14.18;100.00;101351.63;4895910;29;20070;-72
2023/09/16 00:29:55;;;;;;;19.13;10.82;;;;;;;14.24;100.00;101348.13;4895030;29;20107;-72
2023/09/16 00:32:20;;;;;;;15.80;10.57;;;;;;;14.20;100.00;101344.19;4878434;29;20128;-72
2023/09/16 00:34:45;;;;;;;16.30;10.65;;;;;;;14.22;100.00;101358.22;4878134;29;20115;-72
2023/09/16 00:37:11;;;;;;;17.75;11.05;;;;;;;14.25;100.00;101352.44;4895250;29;20068;-72
2023/09/16 00:39:38;;;;;;;18.02;11.90;;;;;;;14.23;100.00;101346.47;4894983;29;20048;-71
2023/09/16 00:42:03;;;;;;;16.23;11.13;;;;;;;14.25;100.00;101357.81;4895077;29;20043;-71
2023/09/16 00:44:29;;;;;;;18.58;11.30;;;;;;;14.26;100.00;101356.78;4895046;29;20045;-72
2023/09/16 00:46:54;;;;;;;19.08;11.35;;;;;;;14.24;100.00;101356.16;4894857;29;20064;-72
2023/09/16 00:49:20;;;;;;;16.20;10.48;;;;;;;14.14;100.00;101351.22;4894770;29;20060;-72
2023/09/16 00:51:45;;;;;;;18.90;10.55;;;;;;;14.10;100.00;101343.81;4894654;29;20477;-72
2023/09/16 00:54:11;;;;;;;17.15;11.25;;;;;;;14.02;100.00;101342.97;4894808;29;20038;-72
2023/09/16 00:56:37;;;;;;;16.95;10.73;;;;;;;13.95;100.00;101334.09;4894208;29;20120;-72
2023/09/16 00:59:03;;;;;;;15.98;9.90;;;;;;;13.99;100.00;101350.59;4894661;29;20116;-71
2023/09/16 01:01:29;;;;;;;15.73;10.65;;;;;;;13.92;100.00;101347.13;4894637;29;20092;-72
2023/09/16 01:03:55;;;;;;;15.35;10.32;;;;;;;13.88;100.00;101338.63;4894859;29;20603;-72
2023/09/16 01:06:21;;;;;;;20.35;11.05;;;;;;;13.91;100.00;101343.63;4877756;29;20041;-72
2023/09/16 01:08:47;;;;;;;16.00;10.80;;;;;;;13.87;100.00;101337.00;4894341;29;20037;-72
2023/09/16 01:11:12;;;;;;;19.48;11.35;;;;;;;13.78;100.00;101328.34;4894516;29;20036;-72
2023/09/16 01:13:39;;;;;;;18.45;11.80;;;;;;;13.78;100.00;101332.84;4894440;29;20033;-72
2023/09/16 01:16:26;;;;;;;17.83;10.60;;;;;;;13.67;100.00;101326.25;4894543;29;20039;-72
2023/09/16 01:18:57;;;;;;;17.98;11.48;;;;;;;13.68;100.00;101329.78;4894406;29;20388;-72
2023/09/16 01:21:23;;;;;;;17.70;10.93;;;;;;;13.64;100.00;101320.50;4894438;29;20033;-72
2023/09/16 01:24:08;;;;;;;19.13;10.98;;;;;;;13.66;100.00;101321.13;4893558;29;20032;-72
2023/09/16 01:26:34;;;;;;;20.95;12.43;;;;;;;13.68;100.00;101325.25;4894086;29;20048;-72
2023/09/16 01:28:59;;;;;;;19.08;11.52;;;;;;;13.69;100.00;101310.81;4894231;29;20036;-72
2023/09/16 01:31:25;;;;;;;17.27;11.07;;;;;;;13.69;100.00;101304.63;4894231;29;20033;-72
2023/09/16 01:33:51;;;;;;;18.08;12.75;;;;;;;13.69;100.00;101315.34;4894267;29;20107;-72
2023/09/16 01:36:22;;;;;;;18.67;10.85;;;;;;;13.76;100.00;101314.31;4894121;29;20459;-72
2023/09/16 01:38:51;;;;;;;16.57;10.40;;;;;;;13.80;100.00;101328.94;4877400;29;20029;-72
2023/09/16 01:41:19;;;;;;;18.95;11.15;;;;;;;13.80;100.00;101320.91;4893944;29;20504;-72
2023/09/16 01:43:45;;;;;;;18.90;12.48;;;;;;;13.84;100.00;101321.34;4894165;29;20040;-71
2023/09/16 01:46:10;;;;;;;17.23;10.48;;;;;;;13.86;100.00;101326.47;4894212;29;20510;-74
2023/09/16 01:48:36;;;;;;;21.13;12.40;;;;;;;13.80;100.00;101325.44;4894005;29;21102;-72
2023/09/16 01:51:02;;;;;;;20.38;13.77;;;;;;;13.78;100.00;101314.09;4893958;29;20028;-72
2023/09/16 01:53:27;;;;;;;19.48;12.88;;;;;;;13.75;100.00;101317.19;4893971;29;20043;-72
2023/09/16 01:55:52;;;;;;;18.38;10.98;;;;;;;13.78;100.00;101316.78;4893862;29;20032;-73
2023/09/16 01:58:18;;;;;;;18.67;11.90;;;;;;;13.79;100.00;101318.44;4893522;29;20068;-72
2023/09/16 02:00:43;;;;;;;20.48;12.90;;;;;;;13.79;100.00;101313.91;4893935;29;20396;-72
2023/09/16 02:03:09;;;;;;;18.50;12.45;;;;;;;13.70;100.00;101299.06;4894001;29;20044;-72
2023/09/16 02:05:34;;;;;;;19.02;11.63;;;;;;;13.75;100.00;101315.38;4893877;29;20385;-72
2023/09/16 02:08:00;;;;;;;19.85;12.93;;;;;;;13.72;100.00;101309.56;4893864;29;20044;-72
2023/09/16 02:10:25;;;;;;;21.92;13.82;;;;;;;13.66;100.00;101303.19;4876963;29;20039;-72
2023/09/16 02:12:51;;;;;;;21.67;12.48;;;;;;;13.65;100.00;101312.25;4893786;29;20499;-72
2023/09/16 02:15:16;;;;;;;20.92;13.73;;;;;;;13.61;100.00;101319.06;4876775;29;20029;-72
2023/09/16 02:17:42;;;;;;;20.88;13.50;;;;;;;13.57;100.00;101317.78;4893833;29;20035;-72
2023/09/16 02:20:10;;;;;;;18.65;12.65;;;;;;;13.55;100.00;101317.19;4893769;29;20044;-72
2023/09/16 02:22:36;;;;;;;19.58;12.60;;;;;;;13.54;100.00;101319.03;4893906;29;20076;-72
2023/09/16 02:25:01;;;;;;;22.38;13.73;;;;;;;13.54;100.00;101316.34;4876803;29;20115;-72
2023/09/16 02:27:26;;;;;;;18.85;12.63;;;;;;;13.54;100.00;101310.16;4894254;29;20051;-72
2023/09/16 02:29:52;;;;;;;18.77;11.32;;;;;;;13.58;100.00;101308.75;4876939;29;20088;-72
2023/09/16 02:32:17;;;;;;;18.88;11.43;;;;;;;13.54;100.00;101308.31;4893681;29;20039;-72
2023/09/16 02:34:42;;;;;;;21.33;12.27;;;;;;;13.49;100.00;101308.13;4894885;29;20563;-72
2023/09/16 02:37:08;;;;;;;21.33;13.73;;;;;;;13.53;100.00;101306.69;4880148;29;20460;-72
2023/09/16 02:39:33;;;;;;;21.38;14.45;;;;;;;13.53;100.00;101304.00;4897380;29;20032;-72
2023/09/16 02:41:59;;;;;;;19.65;12.18;;;;;;;13.54;100.00;101300.28;4897127;29;20036;-72
2023/09/16 02:44:24;;;;;;;23.73;13.55;;;;;;;13.53;100.00;101298.63;4897278;29;20036;-72
2023/09/16 02:46:49;;;;;;;18.17;11.93;;;;;;;13.44;100.00;101301.72;4897158;29;20036;-72
2023/09/16 02:49:15;;;;;;;18.42;12.52;;;;;;;13.44;100.00;101299.03;4897176;29;20466;-72
2023/09/16 02:51:40;;;;;;;19.27;11.15;;;;;;;13.38;100.00;101295.31;4880285;29;20078;-72
2023/09/16 02:54:06;;;;;;;18.77;11.57;;;;;;;13.33;100.00;101295.09;4896914;29;20031;-71
2023/09/16 02:56:32;;;;;;;21.00;12.35;;;;;;;13.33;100.00;101303.97;4897083;29;20392;-72
2023/09/16 02:58:57;;;;;;;19.75;12.20;;;;;;;13.33;100.00;101295.09;4880021;29;20069;-72
2023/09/16 03:01:22;;;;;;;20.83;12.93;;;;;;;13.37;100.00;101301.72;4896909;29;20378;-72
2023/09/16 03:03:48;;;;;;;19.73;13.05;;;;;;;13.40;100.00;101305.84;4896868;29;20033;-71
2023/09/16 03:06:13;;;;;;;21.77;12.93;;;;;;;13.40;100.00;101306.66;4897039;29;20115;-72
2023/09/16 03:08:38;;;;;;;19.73;12.70;;;;;;;13.40;100.00;101306.66;4896930;29;20365;-72
2023/09/16 03:11:05;;;;;;;18.50;12.32;;;;;;;13.36;100.00;101305.41;4896714;29;20021;-72
2023/09/16 03:13:30;;;;;;;19.90;12.90;;;;;;;13.30;100.00;101290.97;4896666;29;20567;-72
2023/09/16 03:16:23;;;;;;;21.98;14.18;;;;;;;13.35;100.00;101296.53;4896632;29;20123;-72
2023/09/16 03:18:50;;;;;;;18.33;12.07;;;;;;;13.31;100.00;101297.19;4887952;29;20052;-72
2023/09/16 03:21:17;;;;;;;19.27;13.25;;;;;;;13.20;100.00;101277.13;4896495;29;20041;-71
2023/09/16 03:23:43;;;;;;;22.58;15.05;;;;;;;13.29;100.00;101289.34;4896676;29;20032;-72
2023/09/16 03:26:10;;;;;;;23.85;13.95;;;;;;;13.25;100.00;101282.69;4896648;29;20388;-72
2023/09/16 03:28:40;;;;;;;24.13;15.10;;;;;;;13.25;100.00;101285.38;4896393;29;20044;-72
2023/09/16 03:31:05;;;;;;;23.42;14.30;;;;;;;13.20;100.00;101284.34;4896384;29;20039;-72
2023/09/16 03:33:31;;;;;;;20.02;13.85;;;;;;;13.21;100.00;101280.66;4896247;29;20040;-72
2023/09/16 03:35:56;;;;;;;23.15;13.65;;;;;;;13.19;100.00;101277.34;4896275;29;20088;-73
2023/09/16 03:38:23;;;;;;;21.65;14.02;;;;;;;13.21;100.00;101280.66;4879364;29;20036;-72
2023/09/16 03:40:50;;;;;;;21.13;13.57;;;;;;;13.22;100.00;101275.06;4896188;29;20033;-72
2023/09/16 03:43:17;;;;;;;20.48;13.35;;;;;;;13.17;100.00;101272.19;4879290;29;20040;-72
2023/09/16 03:45:42;;;;;;;20.38;13.48;;;;;;;13.10;100.00;101266.00;4895846;29;20429;-72
2023/09/16 03:48:08;;;;;;;20.15;12.75;;;;;;;13.10;100.00;101271.34;4878871;29;20064;-73
2023/09/16 03:50:33;;;;;;;18.50;12.43;;;;;;;13.06;100.00;101259.38;4896169;29;20073;-72
2023/09/16 03:52:58;;;;;;;21.23;13.60;;;;;;;13.12;100.00;101264.75;4879100;29;20115;-72
2023/09/16 03:55:24;;;;;;;20.67;13.35;;;;;;;13.11;100.00;101265.78;4896126;29;20476;-72
2023/09/16 03:57:49;;;;;;;19.60;12.68;;;;;;;13.12;100.00;101264.75;4896107;29;20424;-72
2023/09/16 04:00:14;;;;;;;19.02;12.88;;;;;;;13.08;100.00;101255.47;4895456;29;20147;-71
2023/09/16 04:02:40;;;;;;;18.90;11.55;;;;;;;13.15;100.00;101274.22;4879112;29;20044;-72
2023/09/16 04:05:06;;;;;;;21.25;12.65;;;;;;;13.10;100.00;101266.81;4895505;29;20041;-72
2023/09/16 04:07:32;;;;;;;21.63;13.27;;;;;;;13.15;100.00;101267.03;4895868;29;20043;-72
2023/09/16 04:09:57;;;;;;;27.65;14.20;;;;;;;13.12;100.00;101274.63;4878859;29;20028;-73
2023/09/16 04:12:23;;;;;;;19.25;12.38;;;;;;;13.12;100.00;101275.47;4895735;29;20028;-72
2023/09/16 04:14:48;;;;;;;18.33;12.30;;;;;;;13.14;100.00;101276.09;4896017;29;20032;-72
2023/09/16 04:17:13;;;;;;;19.45;11.95;;;;;;;13.09;100.00;101275.03;4895644;29;20054;-72
2023/09/16 04:19:39;;;;;;;19.80;12.52;;;;;;;13.09;100.00;101280.41;4878563;29;20036;-73
2023/09/16 04:22:04;;;;;;;20.38;13.30;;;;;;;13.02;100.00;101285.75;4895479;29;20041;-72
2023/09/16 04:24:29;;;;;;;21.85;12.95;;;;;;;12.97;100.00;101282.84;4895360;29;20509;-72
2023/09/16 04:26:55;;;;;;;20.48;12.95;;;;;;;12.96;100.00;101273.16;4878346;29;20045;-72
2023/09/16 04:29:20;;;;;;;22.00;13.27;;;;;;;12.93;100.00;101274.38;4895560;29;20047;-72
2023/09/16 04:31:46;;;;;;;20.67;12.32;;;;;;;12.92;100.00;101271.94;4895168;29;20059;-72
2023/09/16 04:34:11;;;;;;;21.60;13.40;;;;;;;12.88;100.00;101265.31;4895115;29;20892;-72
2023/09/16 04:36:36;;;;;;;23.45;14.43;;;;;;;12.89;100.00;101266.94;4895055;29;20172;-72
2023/09/16 04:39:02;;;;;;;22.05;14.05;;;;;;;12.89;100.00;101270.47;4862644;29;20039;-72
2023/09/16 04:41:27;;;;;;;22.02;14.95;;;;;;;12.85;100.00;101263.88;4894935;29;20473;-72
2023/09/16 04:43:53;;;;;;;20.40;12.70;;;;;;;12.81;100.00;101257.28;4877955;29;20091;-72
2023/09/16 04:46:19;;;;;;;21.08;12.55;;;;;;;12.77;100.00;101257.88;4895079;29;20037;-72
2023/09/16 04:48:45;;;;;;;20.15;12.40;;;;;;;12.68;100.00;101259.88;4878081;29;20064;-72
2023/09/16 04:51:10;;;;;;;20.63;11.57;;;;;;;12.68;100.00;101260.72;4894990;29;20060;-72
2023/09/16 04:53:35;;;;;;;17.48;12.13;;;;;;;12.60;100.00;101250.22;4894781;29;20072;-72
2023/09/16 04:56:02;;;;;;;19.52;12.45;;;;;;;12.67;100.00;101252.88;4894759;29;20039;-72
2023/09/16 04:58:28;;;;;;;19.80;12.73;;;;;;;12.66;100.00;101259.28;4894511;29;20199;-72
2023/09/16 05:00:53;;;;;;;19.50;12.20;;;;;;;12.69;100.00;101257.03;4895029;29;20547;-72
2023/09/16 05:03:19;;;;;;;20.15;13.45;;;;;;;12.76;100.00;101273.13;4895078;29;20073;-72
2023/09/16 05:05:47;;;;;;;18.75;13.13;;;;;;;12.78;100.00;101271.03;4878208;29;20037;-72
2023/09/16 05:08:13;;;;;;;21.05;12.95;;;;;;;12.78;100.00;101268.38;4894914;29;20043;-72
2023/09/16 05:10:38;;;;;;;19.77;12.82;;;;;;;12.78;100.00;101262.19;4894991;29;20032;-72
2023/09/16 05:13:03;;;;;;;22.63;12.95;;;;;;;12.74;100.00;101261.78;4894536;29;20036;-72
2023/09/16 05:15:29;;;;;;;25.27;14.25;;;;;;;12.74;100.00;101264.44;4893885;29;20476;-72
2023/09/16 05:17:54;;;;;;;18.33;12.38;;;;;;;12.70;100.00;101263.19;4876794;29;20127;-72
2023/09/16 05:20:19;;;;;;;18.77;12.82;;;;;;;12.61;100.00;101259.88;4893569;29;20032;-72
2023/09/16 05:22:49;;;;;;;22.90;13.43;;;;;;;12.64;100.00;101262.16;4894077;29;20040;-72
2023/09/16 05:25:15;;;;;;;20.25;13.55;;;;;;;12.67;100.00;101261.75;4894088;29;20029;-72
2023/09/16 05:27:41;;;;;;;21.75;13.27;;;;;;;12.71;100.00;101265.69;4894520;29;20033;-72
2023/09/16 05:30:07;;;;;;;23.25;14.20;;;;;;;12.77;100.00;101268.59;4894485;29;20035;-72
2023/09/16 05:32:32;;;;;;;21.67;14.27;;;;;;;12.79;100.00;101266.53;4894030;29;20047;-72
2023/09/16 05:34:57;;;;;;;21.85;14.10;;;;;;;12.83;100.00;101270.44;4893516;29;20421;-72
2023/09/16 05:37:23;;;;;;;20.02;12.68;;;;;;;12.84;100.00;101269.44;4893074;29;20043;-72
2023/09/16 05:39:49;;;;;;;20.52;12.27;;;;;;;12.85;100.00;101263.88;4894361;29;20057;-72
2023/09/16 05:42:14;;;;;;;22.08;15.73;;;;;;;12.82;100.00;101268.81;4877472;29;20032;-72
2023/09/16 05:44:39;;;;;;;24.02;15.05;;;;;;;12.84;100.00;101264.09;4877362;29;20043;-72
2023/09/16 05:47:05;;;;;;;24.80;15.45;;;;;;;12.91;100.00;101264.91;4894100;29;20376;-72
2023/09/16 05:49:31;;;;;;;23.42;14.75;;;;;;;12.94;100.00;101262.66;4894208;29;20429;-72
2023/09/16 05:51:56;;;;;;;22.98;14.05;;;;;;;12.98;100.00;101265.75;4894018;29;20033;-72
2023/09/16 05:54:22;;;;;;;23.70;15.93;;;;;;;13.03;100.00;101267.84;4877508;29;20527;-72
2023/09/16 05:56:49;;;;;;;26.40;16.17;;;;;;;13.03;100.00;101251.75;4877176;29;20531;-72
2023/09/16 05:59:14;;;;;;;25.58;17.90;;;;;;;13.08;100.00;101257.34;4877456;29;20048;-72
2023/09/16 06:01:40;;;;;;;23.85;16.55;;;;;;;13.14;100.00;101273.41;4893916;29;20084;-72
2023/09/16 06:04:05;;;;;;;23.30;16.33;;;;;;;13.16;100.00;101268.69;4894063;29;20433;-72
2023/09/16 06:06:31;;;;;;;24.30;16.33;;;;;;;13.26;100.00;101265.66;4894128;29;21023;-72
2023/09/16 06:08:56;;;;;;;29.88;15.68;;;;;;;13.33;100.00;101271.81;4877248;29;20036;-72
2023/09/16 06:11:26;;;;;;;24.75;16.95;;;;;;;13.36;100.00;101276.78;4897894;29;20042;-72
2023/09/16 06:13:52;;;;;;;24.25;16.15;;;;;;;13.39;100.00;101267.50;4881681;29;20035;-72
2023/09/16 06:16:18;;;;;;;29.00;18.85;;;;;;;13.50;100.00;101271.44;4898055;29;20039;-72
2023/09/16 06:18:43;;;;;;;25.10;17.38;;;;;;;13.55;100.00;101271.63;4897859;29;20702;-72
2023/09/16 06:21:09;;;;;;;27.35;17.60;;;;;;;13.63;100.00;101275.97;4897609;29;20036;-72
2023/09/16 06:23:34;;;;;;;27.10;17.95;;;;;;;13.71;100.00;101273.91;4897966;29;21125;-72
2023/09/16 06:26:00;;;;;;;25.52;17.27;;;;;;;13.76;100.00;101281.31;4897800;29;20095;-72
2023/09/16 06:28:25;;;;;;;25.65;16.73;;;;;;;13.86;100.00;101278.22;4880988;29;20043;-72
2023/09/16 06:30:50;;;;;;;26.23;18.02;;;;;;;13.93;100.00;101274.50;4897558;29;20059;-72
2023/09/16 06:33:16;;;;;;;27.60;19.20;;;;;;;14.01;100.00;101279.63;4897559;29;20032;-72
2023/09/16 06:35:41;;;;;;;28.88;19.35;;;;;;;14.12;100.00;101280.88;4897705;29;20067;-72
2023/09/16 06:38:07;;;;;;;27.70;19.80;;;;;;;14.19;100.00;101287.03;4897423;29;20028;-72
2023/09/16 06:40:32;;;;;;;26.95;18.80;;;;;;;14.31;100.00;101294.47;4897452;29;20091;-72
2023/09/16 06:42:57;;;;;;;27.52;18.65;;;;;;;14.40;100.00;101280.56;4897374;29;20072;-72
2023/09/16 06:45:23;;;;;;;26.70;18.40;;;;;;;14.50;100.00;101282.81;4880276;29;20489;-72
2023/09/16 06:47:48;;;;;;;25.35;19.45;;;;;;;14.56;100.00;101281.19;4897324;29;20037;-72
2023/09/16 06:50:13;;;;;;;28.15;21.15;;;;;;;14.62;100.00;101288.41;4897312;29;20087;-72
2023/09/16 06:52:39;;;;;;;27.48;21.15;;;;;;;14.69;100.00;101290.00;4880075;29;20032;-72
2023/09/16 06:55:04;;;;;;;26.67;19.63;;;;;;;14.76;100.00;101295.34;4897261;29;20453;-71
2023/09/16 06:57:31;;;;;;;27.25;21.08;;;;;;;14.84;100.00;101300.47;4897161;29;20064;-71
2023/09/16 06:59:56;;;;;;;27.75;19.60;;;;;;;14.87;100.00;101289.28;4896949;29;20084;-72
2023/09/16 07:02:22;;;;;;;26.73;21.70;;;;;;;14.96;100.00;101299.78;4880182;29;20068;-72
2023/09/16 07:04:48;;;;;;;27.35;18.90;;;;;;;15.06;100.00;101301.00;4897054;29;20057;-72
2023/09/16 07:07:14;;;;;;;25.88;20.08;;;;;;;15.14;100.00;101294.50;4898063;29;20041;-72
2023/09/16 07:09:39;;;;;;;26.75;20.38;;;;;;;15.20;100.00;101292.84;4897240;29;20036;-72
2023/09/16 07:12:06;;;;;;;27.83;19.52;;;;;;;15.29;100.00;101289.66;4880129;29;20032;-71
2023/09/16 07:14:31;;;;;;;26.60;19.30;;;;;;;15.39;100.00;101291.88;4896987;29;20143;-72
2023/09/16 07:16:57;;;;;;;26.70;19.25;;;;;;;15.49;100.00;101299.47;4897075;29;20548;-72
2023/09/16 07:19:22;;;;;;;25.58;17.88;;;;;;;15.53;100.00;101285.34;4897611;29;20464;-72
2023/09/16 07:21:48;;;;;;;24.38;18.40;;;;;;;15.64;100.00;101289.22;4895325;29;20035;-72
2023/09/16 07:24:13;;;;;;;25.20;18.15;;;;;;;15.74;100.00;101296.81;4896657;29;20037;-72
2023/09/16 07:26:38;;;;;;;25.00;19.38;;;;;;;15.78;100.00;101284.59;4896324;29;20032;-72
2023/09/16 07:29:05;;;;;;;24.00;16.73;;;;;;;15.92;100.00;101301.41;4879925;29;20044;-73
2023/09/16 07:31:30;;;;;;;24.70;17.88;;;;;;;16.02;100.00;101292.84;4889176;29;20020;-73
2023/09/16 07:33:56;;;;;;;27.65;18.25;;;;;;;16.11;100.00;101294.19;4888579;29;20444;-73
2023/09/16 07:36:21;;;;;;;24.85;18.52;;;;;;;16.19;100.00;101297.44;4888921;29;20029;-73
2023/09/16 07:38:47;;;;;;;23.92;16.85;;;;;;;16.29;100.00;101291.50;4889426;29;20024;-73
2023/09/16 07:41:12;;;;;;;22.38;16.60;;;;;;;16.38;100.00;101295.56;4889004;29;20492;-73
2023/09/16 07:43:37;;;;;;;24.95;16.90;;;;;;;16.46;100.00;101296.31;4889229;29;20096;-73
2023/09/16 07:46:03;;;;;;;21.55;15.10;;;;;;;16.55;100.00;101297.66;4891652;29;20111;-72
2023/09/16 07:48:28;;;;;;;22.20;16.17;;;;;;;16.67;100.00;101313.91;4895949;29;20088;-72
2023/09/16 07:50:54;;;;;;;22.65;15.60;;;;;;;16.75;100.00;101310.88;4878931;29;20125;-72
2023/09/16 07:53:22;;;;;;;21.73;15.10;;;;;;;16.85;100.00;101311.22;4895754;29;20036;-73
2023/09/16 07:55:48;;;;;;;21.83;13.52;;;;;;;16.93;100.00;101310.06;4895831;29;20044;-72
2023/09/16 07:58:13;;;;;;;21.10;13.93;;;;;;;16.98;100.00;101304.81;4895941;29;20088;-72
2023/09/16 08:00:38;;;;;;;21.02;13.30;;;;;;;17.09;100.00;101310.25;4895673;29;20513;-72
2023/09/16 08:03:04;;;;;;;20.77;12.65;;;;;;;17.16;100.00;101314.72;4896090;29;20135;-72
2023/09/16 08:05:29;;;;;;;20.20;12.73;;;;;;;17.23;100.00;101302.78;4896027;29;20036;-72
2023/09/16 08:07:55;;;;;;;19.90;13.25;;;;;;;17.30;100.00;101311.59;4879100;29;20047;-71
2023/09/16 08:10:20;;;;;;;21.13;13.25;;;;;;;17.34;100.00;101311.16;4895251;29;20032;-72
2023/09/16 08:12:45;;;;;;;19.55;12.45;;;;;;;17.40;100.00;101321.84;4895759;29;20033;-72
2023/09/16 08:15:11;;;;;;;18.20;12.52;;;;;;;17.47;100.00;101311.75;4893984;29;20036;-71
2023/09/16 08:17:39;;;;;;;19.85;13.25;;;;;;;17.62;100.00;101318.59;4895613;29;20054;-75
2023/09/16 08:20:08;;;;;;;19.55;12.20;;;;;;;17.73;100.00;101312.41;4895006;29;20047;-75
2023/09/16 08:22:34;;;;;;;19.35;12.57;;;;;;;17.82;100.00;101316.44;4895442;29;20131;-74
2023/09/16 08:24:59;;;;;;;21.17;12.95;;;;;;;17.94;100.00;101316.44;4895591;29;20475;-75
2023/09/16 08:27:25;;;;;;;19.30;13.00;;;;;;;18.00;100.00;101306.56;4895788;29;20032;-75
2023/09/16 08:29:52;;;;;;;23.20;14.13;;;;;;;18.11;100.00;101320.09;4878772;29;20028;-76
2023/09/16 08:32:18;;;;;;;23.65;14.02;;;;;;;18.20;100.00;101325.94;4895340;29;20064;-76
2023/09/16 08:34:44;;;;;;;22.33;14.13;;;;;;;18.24;100.00;101323.59;4895299;29;20214;-75
2023/09/16 08:37:11;;;;;;;23.35;14.57;;;;;;;18.33;100.00;101328.38;4895762;29;20453;-75
2023/09/16 08:39:37;;;;;;;19.73;13.40;;;;;;;18.42;100.00;101328.88;4895559;29;20072;-74
2023/09/16 08:42:11;;;;;;;22.50;14.07;;;;;;;18.50;100.00;101327.69;4895204;29;20072;-75
2023/09/16 08:44:41;;;;;;;19.40;12.45;;;;;;;18.62;100.00;101331.97;4894879;29;20028;-74
2023/09/16 08:47:14;;;;;;;19.08;13.27;;;;;;;18.77;100.00;101334.22;4894149;29;20585;-75
2023/09/16 08:49:50;;;;;;;19.63;13.07;;;;;;;18.93;100.00;101326.41;4894750;29;20128;-75
2023/09/16 08:52:17;;;;;;;19.95;12.48;;;;;;;19.07;100.00;101327.75;4894877;29;20336;-74
2023/09/16 08:54:47;;;;;;;18.73;11.23;;;;;;;19.17;100.00;101332.53;4878102;29;20028;-74
2023/09/16 08:57:13;;;;;;;18.20;11.35;;;;;;;19.31;100.00;101333.91;4895187;29;20111;-74
2023/09/16 08:59:40;;;;;;;20.75;11.60;;;;;;;19.46;100.00;101342.25;4894793;29;20136;-74
2023/09/16 09:02:08;;;;;;;17.60;10.85;;;;;;;19.52;100.00;101334.22;4894702;29;20111;-75
2023/09/16 09:04:34;;;;;;;18.50;11.60;;;;;;;19.54;100.00;101329.41;4895028;29;20040;-75
2023/09/16 09:07:00;;;;;;;18.95;11.63;;;;;;;19.64;100.00;101337.69;4862648;29;20048;-74
2023/09/16 09:09:26;;;;;;;22.00;11.25;;;;;;;19.67;100.00;101337.22;4894738;29;20451;-74
2023/09/16 09:11:55;;;;;;;18.92;11.52;;;;;;;19.72;100.00;101341.91;4894750;29;20103;-73
2023/09/16 09:14:23;;;;;;;20.20;13.52;;;;;;;19.74;100.00;101329.78;4894674;29;20445;-74
2023/09/16 09:16:50;;;;;;;18.55;11.57;;;;;;;19.82;100.00;101339.38;4894377;29;20032;-74
2023/09/16 09:19:15;;;;;;;20.60;12.38;;;;;;;19.89;100.00;101335.44;4894503;29;20032;-75
2023/09/16 09:21:44;;;;;;;20.58;11.43;;;;;;;19.89;100.00;101338.16;4894491;29;20457;-75
2023/09/16 09:24:09;;;;;;;18.23;10.85;;;;;;;20.00;100.00;101343.72;4894689;29;20035;-73
2023/09/16 09:26:35;;;;;;;19.95;11.93;;;;;;;20.09;100.00;101347.63;4877785;29;20048;-77
2023/09/16 09:29:00;;;;;;;20.05;11.45;;;;;;;20.13;100.00;101344.19;4894430;29;20054;-77
2023/09/16 09:31:26;;;;;;;18.98;11.40;;;;;;;20.23;100.00;101350.84;4894515;29;20047;-75
2023/09/16 09:33:53;;;;;;;19.80;12.05;;;;;;;20.27;100.00;101344.66;4894425;29;20039;-75
2023/09/16 09:36:18;;;;;;;18.38;11.30;;;;;;;20.35;100.00;101346.13;4894267;29;20032;-75
2023/09/16 09:38:45;;;;;;;17.92;11.15;;;;;;;20.45;100.00;101351.69;4895187;29;20032;-75
2023/09/16 09:41:12;;;;;;;20.23;11.75;;;;;;;20.49;100.00;101352.84;4893819;29;20065;-76
2023/09/16 09:43:38;;;;;;;16.27;10.05;;;;;;;20.60;100.00;101347.56;4894238;29;20123;-74
2023/09/16 09:46:03;;;;;;;19.70;11.88;;;;;;;20.69;100.00;101356.91;4893707;29;20107;-74
2023/09/16 09:48:30;;;;;;;19.02;11.85;;;;;;;20.75;100.00;101364.00;4894129;29;20028;-74
2023/09/16 09:50:56;;;;;;;17.13;10.90;;;;;;;20.87;100.00;101367.44;4894082;29;20033;-75
2023/09/16 09:53:23;;;;;;;17.90;11.15;;;;;;;20.82;99.45;101367.38;4894130;29;20124;-75
2023/09/16 09:55:49;;;;;;;19.30;11.43;;;;;;;20.81;99.94;101365.72;4894135;29;20032;-75
2023/09/16 09:58:16;;;;;;;18.70;11.70;;;;;;;20.77;100.00;101359.16;4894181;29;20041;-74
2023/09/16 10:00:47;;;;;;;19.42;11.38;;;;;;;20.86;100.00;101362.28;4893594;29;20541;-74
2023/09/16 10:03:13;;;;;;;18.50;10.82;;;;;;;20.94;100.00;101356.41;4893881;29;20495;-75
2023/09/16 10:05:38;;;;;;;15.80;9.30;;;;;;;21.01;100.00;101360.56;4893803;29;20072;-75
2023/09/16 10:08:04;;;;;;;17.23;10.48;;;;;;;21.08;99.00;101363.06;4893829;29;20036;-74
2023/09/16 10:10:31;;;;;;;17.80;10.20;;;;;;;21.12;97.97;101356.06;4893715;29;20033;-74
2023/09/16 10:12:57;;;;;;;17.27;10.60;;;;;;;21.18;97.45;101351.50;4893938;29;20043;-73
2023/09/16 10:15:35;;;;;;;18.08;11.45;;;;;;;21.35;97.18;101354.94;4894094;29;20124;-74
2023/09/16 10:18:03;;;;;;;17.08;10.45;;;;;;;21.50;97.45;101348.84;4893750;29;20024;-77
2023/09/16 10:20:34;;;;;;;19.02;11.45;;;;;;;21.70;96.74;101359.09;4893912;29;20063;-73
2023/09/16 10:22:59;;;;;;;19.90;10.93;;;;;;;21.71;93.06;101349.84;4893866;29;20029;-75
2023/09/16 10:25:27;;;;;;;19.38;10.98;;;;;;;21.73;93.45;101336.84;4877037;29;20099;-75
2023/09/16 10:28:04;;;;;;;16.67;10.43;;;;;;;21.81;92.89;101344.50;4893922;29;20064;-75
2023/09/16 10:30:31;;;;;;;18.83;11.02;;;;;;;21.86;92.95;101355.41;4893723;29;20075;-75
2023/09/16 10:33:01;;;;;;;17.75;10.73;;;;;;;21.97;95.86;101348.16;4894043;29;20036;-75
2023/09/16 10:35:28;;;;;;;18.15;10.65;;;;;;;22.01;91.80;101334.88;4876978;29;20111;-75
2023/09/16 10:37:57;;;;;;;15.90;8.98;;;;;;;22.10;91.77;101347.69;4894100;29;20060;-74
2023/09/16 10:40:23;;;;;;;16.40;10.15;;;;;;;22.12;92.96;101339.28;4893612;29;20073;-74
2023/09/16 10:42:50;;;;;;;16.67;9.93;;;;;;;22.17;95.14;101343.94;4893559;29;20044;-75
2023/09/16 10:45:17;;;;;;;16.95;10.32;;;;;;;22.20;91.68;101343.47;4893836;29;20039;-75
2023/09/16 10:47:44;;;;;;;17.77;10.07;;;;;;;22.20;94.10;101341.56;4893556;29;20029;-75
2023/09/16 10:50:10;;;;;;;15.63;9.30;;;;;;;22.25;93.34;101349.72;4893411;29;20111;-74
2023/09/16 10:52:55;;;;;;;20.10;10.90;;;;;;;22.29;95.50;101334.53;4893343;29;20379;-74
2023/09/16 10:55:44;;;;;;;17.38;10.40;;;;;;;22.25;94.69;101338.06;4893743;29;20025;-74
2023/09/16 10:58:33;;;;;;;18.25;11.98;;;;;;;22.24;94.18;101334.53;4897303;29;20576;-74